Airfield :
LOGIN :

Register | Disclaimer

   EN    FR    IT 

 










Legend :    VFR   Marginal VFR   IFR   Intensive IFR   Very Intensive IFR
Visi :
Ceiling :
>= 8 km
>= 3000ft
5 to 8 km
1000 to 3000 ft
1500m to 5 km
500 to 1000 ft
800 to 1500m
200 to 500 ft
< 800m
< 200 ft
Symbols :   Thunderstorms  Fog  Heavy snow  Heavy precipitations  Wind > 20 kt
SIGMETs :     Misc.  Thunderstorms  Icing  Turbulence  Mountain Waves  Volcanic Ashes






- Airport Elevation : 90 ft
- IATA code : NTE


LFRS - Nantes

CURRENT METAR :
  • 180430Z AUTO VRB02KT 9999 OVC014 04/03 Q1035 NOSIG

EXPIRED METARs :
  • 180400Z AUTO 04004KT 350V060 9999 FEW018 04/02 Q1035 BECMG BKN013
  • 180330Z AUTO 05004KT 9999 FEW023 04/03 Q1035 BECMG BKN013
  • 180300Z AUTO 05005KT 9999 BKN021 05/03 Q1035 BECMG BKN013
  • 180230Z AUTO 07009KT 9999 BKN011 OVC019 05/03 Q1036 NOSIG
  • 180200Z AUTO 08014KT 9999 OVC011 05/03 Q1036 NOSIG

TAF AMD TAF LFRS
Valid from the 18 at 04:00 until the 19 at 06:00 UTC


180426Z 1804/1906 07010KT 9999 BKN016
PROB40
TEMPO 1804/1807 4000 BR BKN012
BECMG 1817/1819 01004KT -RA
BECMG 1819/1821 4000 -RA SCT015 BKN020
PROB30
TEMPO 1821/1906 2000 -RADZ BKN007 BKN013
ATIS : +33 2 40 05 12 74



MET'MAP, your aeronautical weather chart ! - Copyright ORBIFLY December 2007 - Disclaimer

ORBIFLY MET'MAP TEAM :

Programming & Development : Alexandra Zaïnal
Concept & original design : Baudouin d'Aumeries
Assistance for programming : Marc-Olivier Méhu
Technical & hardware support : Manuel Goepfert

Contact : metmap@orbifly.com




SOURCES & CREDITS :

   NOAA